Fincastle, Virginia
Current Conditions -  °F | °C
As of 12:54 PM on Thursday 27 Nov 2014 (Local Time) from KROA Reporting Station
Overcast Overcast  
Wind Chill: 33°   Ceiling: 4400
Heat Index: 41°   Visibility: 10mi
Dew Point: 26°   Wind: 15mph
Humidity: 55%   Direction: 300°WNW
Pressure: 30.09"   Gusts: NA
Location:  37.5°N, 79.88°W
Report Text: KROA 271754Z 30013KT 10SM OVC044 05/M03 A3009 RMK AO2 SLP193 60000 T00501033 10067 20011 50009
Loading
Personal Weather Stations






























Interactive Weather Map New forecast layout! Learn more

10-Day Weather Forecast

Advertisements
Track Severe Weather on mobile